createdAt,value
2017-08-12T00:01:38.752Z,94227.50
2017-08-12T00:04:06.509Z,94233.48
2017-08-12T00:06:34.357Z,94237.91
2017-08-12T00:09:02.108Z,94243.62
2017-08-12T00:11:29.868Z,94244.70
2017-08-12T00:13:57.631Z,94246.27
2017-08-12T00:16:25.357Z,94231.03
2017-08-12T00:18:53.134Z,94235.36
2017-08-12T00:21:20.853Z,94232.39
2017-08-12T00:23:48.628Z,94238.81
2017-08-12T00:26:16.435Z,94236.89
2017-08-12T00:28:44.189Z,94228.95
2017-08-12T00:31:11.897Z,94240.52
2017-08-12T00:33:39.598Z,94245.26
2017-08-12T00:36:07.326Z,94248.55
2017-08-12T00:38:35.101Z,94243.09
2017-08-12T00:41:02.810Z,94249.27
2017-08-12T00:43:30.573Z,94245.83
2017-08-12T00:45:58.278Z,94246.66
2017-08-12T00:48:26.036Z,94247.72
2017-08-12T00:50:54.027Z,94253.83
2017-08-12T00:53:21.737Z,94251.17
2017-08-12T00:55:49.505Z,94246.51
2017-08-12T00:58:17.324Z,94247.67
2017-08-12T01:00:45.091Z,94252.31
2017-08-12T01:03:12.837Z,94262.57
2017-08-12T01:05:40.535Z,94261.70
2017-08-12T01:08:08.283Z,94260.51
2017-08-12T01:10:36.113Z,94266.73
2017-08-12T01:13:03.961Z,94254.80
2017-08-12T01:15:31.654Z,94255.28
2017-08-12T01:17:59.421Z,94253.77
2017-08-12T01:20:27.132Z,94252.63
2017-08-12T01:22:55.140Z,94247.67
2017-08-12T01:25:22.852Z,94258.92
2017-08-12T01:27:50.586Z,94254.28
2017-08-12T01:30:18.339Z,94256.21
2017-08-12T01:32:46.030Z,94258.43
2017-08-12T01:35:13.703Z,94259.72
2017-08-12T01:37:41.628Z,94266.84
2017-08-12T01:40:09.321Z,94261.42
2017-08-12T01:42:37.035Z,94258.48
2017-08-12T01:45:04.830Z,94251.30
2017-08-12T01:47:32.554Z,94256.97
2017-08-12T01:50:00.284Z,94258.72
2017-08-12T01:52:28.105Z,94255.66
2017-08-12T01:54:55.865Z,94262.16
2017-08-12T01:57:23.616Z,94264.44
2017-08-12T01:59:51.301Z,94270.09
2017-08-12T02:02:18.989Z,94266.46
2017-08-12T02:04:46.776Z,94265.97
2017-08-12T02:07:14.493Z,94266.36
2017-08-12T02:09:42.280Z,94271.27
2017-08-12T02:12:10.023Z,94265.20
2017-08-12T02:14:37.781Z,94266.86
2017-08-12T02:17:05.540Z,94261.74
2017-08-12T02:19:33.298Z,94261.66
2017-08-12T02:22:01.003Z,94258.84
2017-08-12T02:24:28.700Z,94261.46
2017-08-12T02:26:56.467Z,94257.55
2017-08-12T02:29:24.183Z,94258.97
2017-08-12T02:31:51.931Z,94259.44
2017-08-12T02:34:19.828Z,94258.41
2017-08-12T02:36:47.533Z,94256.92
2017-08-12T02:39:15.252Z,94254.75
2017-08-12T02:41:43.009Z,94252.58
2017-08-12T02:44:10.712Z,94254.48
2017-08-12T02:46:38.593Z,94257.45
2017-08-12T02:49:06.309Z,94259.13
2017-08-12T02:51:34.010Z,94250.55
2017-08-12T02:54:01.739Z,94248.69
2017-08-12T02:56:29.520Z,94246.41
2017-08-12T02:58:57.242Z,94255.00
2017-08-12T03:01:24.989Z,94254.30
2017-08-12T03:03:52.725Z,94247.70
2017-08-12T03:06:20.493Z,94246.71
2017-08-12T03:08:48.195Z,94245.01
2017-08-12T03:11:15.973Z,94237.55
2017-08-12T03:13:43.869Z,94240.05
2017-08-12T03:16:11.629Z,94241.47
2017-08-12T03:18:39.393Z,94238.53
2017-08-12T03:21:07.226Z,94239.89
2017-08-12T03:23:34.979Z,94244.19
2017-08-12T03:26:02.783Z,94240.68
2017-08-12T03:28:30.589Z,94243.20
2017-08-12T03:30:58.264Z,94242.45
2017-08-12T03:33:26.046Z,94241.25
2017-08-12T03:35:53.763Z,94246.52
2017-08-12T03:38:21.483Z,94245.39
2017-08-12T03:40:49.213Z,94247.93
2017-08-12T03:43:16.957Z,94250.33
2017-08-12T03:45:44.680Z,94248.30
2017-08-12T03:48:12.591Z,94251.11
2017-08-12T03:50:40.417Z,94250.96
2017-08-12T03:53:08.165Z,94253.33
2017-08-12T03:55:35.828Z,94252.15
2017-08-12T03:58:03.581Z,94260.16
2017-08-12T04:00:31.264Z,94263.14
2017-08-12T04:02:58.953Z,94259.70
2017-08-12T04:05:26.690Z,94257.83
2017-08-12T04:07:54.373Z,94257.45
2017-08-12T04:10:22.122Z,94254.61
2017-08-12T04:12:49.923Z,94258.98
2017-08-12T04:15:17.696Z,94261.98
2017-08-12T04:17:45.396Z,94266.86
2017-08-12T04:20:13.169Z,94264.52
2017-08-12T04:22:40.966Z,94265.16
2017-08-12T04:25:08.690Z,94261.95
2017-08-12T04:27:36.390Z,94264.22
2017-08-12T04:30:04.693Z,94258.88
2017-08-12T04:32:32.385Z,94262.37
2017-08-12T04:35:01.032Z,94266.09
2017-08-12T04:37:28.721Z,94262.84
2017-08-12T04:39:56.466Z,94270.11
2017-08-12T04:42:24.198Z,94263.50
2017-08-12T04:44:51.889Z,94269.37
2017-08-12T04:47:19.591Z,94263.95
2017-08-12T04:49:47.389Z,94267.92
2017-08-12T04:52:15.086Z,94267.13
2017-08-12T04:54:42.818Z,94267.46
2017-08-12T04:57:10.519Z,94266.80
2017-08-12T04:59:38.317Z,94272.44
2017-08-12T05:02:06.103Z,94270.66
2017-08-12T05:04:33.785Z,94268.39
2017-08-12T05:07:01.592Z,94265.73
2017-08-12T05:09:29.304Z,94265.23
2017-08-12T05:11:57.065Z,94270.57
2017-08-12T05:14:24.761Z,94268.23
2017-08-12T05:16:52.539Z,94276.72
2017-08-12T05:19:20.347Z,94279.25
2017-08-12T05:21:48.126Z,94275.61
2017-08-12T05:24:15.832Z,94280.12
2017-08-12T05:26:43.592Z,94277.43
2017-08-12T05:29:11.374Z,94274.34
2017-08-12T05:31:39.921Z,94283.77
2017-08-12T05:34:07.638Z,94282.81
2017-08-12T05:36:35.413Z,94294.63
2017-08-12T05:39:03.169Z,94299.78
2017-08-12T05:41:30.888Z,94298.95
2017-08-12T05:43:58.639Z,94299.02
2017-08-12T05:46:26.344Z,94287.22
2017-08-12T05:48:54.158Z,94291.25
2017-08-12T05:51:22.007Z,94302.55
2017-08-12T05:53:49.772Z,94310.38
2017-08-12T05:56:17.498Z,94316.22
2017-08-12T05:58:45.206Z,94314.95
2017-08-12T06:01:12.974Z,94312.14
2017-08-12T06:03:40.703Z,94313.81
2017-08-12T06:06:08.468Z,94315.55
2017-08-12T06:08:36.179Z,94307.75
2017-08-12T06:11:03.933Z,94300.91
2017-08-12T06:13:31.675Z,94301.52
2017-08-12T06:15:59.443Z,94304.80
2017-08-12T06:18:27.185Z,94309.92
2017-08-12T06:20:55.028Z,94314.28
2017-08-12T06:23:22.782Z,94317.38
2017-08-12T06:25:50.538Z,94320.46
2017-08-12T06:28:18.374Z,94319.69
2017-08-12T06:30:46.149Z,94326.19
2017-08-12T06:33:13.881Z,94330.70
2017-08-12T06:35:41.657Z,94337.31
2017-08-12T06:38:09.496Z,94340.37
2017-08-12T06:40:37.280Z,94338.35
2017-08-12T06:43:04.980Z,94339.02
2017-08-12T06:45:33.369Z,94338.91
2017-08-12T06:48:01.132Z,94340.57
2017-08-12T06:50:28.880Z,94339.66
2017-08-12T06:52:56.680Z,94343.38
2017-08-12T06:55:24.492Z,94338.61
2017-08-12T06:57:52.196Z,94335.77
2017-08-12T07:00:19.960Z,94339.38
2017-08-12T07:02:47.739Z,94339.55
2017-08-12T07:05:15.549Z,94336.11
2017-08-12T07:07:43.249Z,94335.83
2017-08-12T07:10:10.959Z,94334.34
2017-08-12T07:12:38.709Z,94332.32
2017-08-12T07:15:06.405Z,94337.22
2017-08-12T07:17:34.223Z,94333.73
2017-08-12T07:20:01.944Z,94340.55
2017-08-12T07:22:29.675Z,94342.34
2017-08-12T07:24:57.444Z,94341.70
2017-08-12T07:27:25.152Z,94343.33
2017-08-12T07:29:52.963Z,94338.34
2017-08-12T07:32:20.704Z,94332.75
2017-08-12T07:34:48.415Z,94338.91
2017-08-12T07:37:17.258Z,94350.61
2017-08-12T07:39:45.012Z,94350.31
2017-08-12T07:42:12.739Z,94337.76
2017-08-12T07:44:40.662Z,94325.95
2017-08-12T07:47:08.418Z,94334.80
2017-08-12T07:49:36.165Z,94326.91
2017-08-12T07:52:03.912Z,94336.20
2017-08-12T07:54:31.674Z,94339.63
2017-08-12T07:56:59.422Z,94347.94
2017-08-12T07:59:27.206Z,94344.98
2017-08-12T08:01:54.922Z,94355.56
2017-08-12T08:04:22.643Z,94368.23
2017-08-12T08:06:50.410Z,94367.75
2017-08-12T08:09:18.134Z,94373.97
2017-08-12T08:11:45.853Z,94370.11
2017-08-12T08:14:13.596Z,94374.69
2017-08-12T08:16:41.311Z,94380.92
2017-08-12T08:19:09.076Z,94377.94
2017-08-12T08:21:36.789Z,94373.95
2017-08-12T08:24:04.490Z,94375.63
2017-08-12T08:26:32.296Z,94371.63
2017-08-12T08:29:00.025Z,94375.72
2017-08-12T08:31:27.872Z,94373.16
2017-08-12T08:33:55.585Z,94376.34
2017-08-12T08:36:23.291Z,94378.48
2017-08-12T08:38:51.055Z,94374.34
2017-08-12T08:41:18.770Z,94375.84
2017-08-12T08:43:46.497Z,94375.15
2017-08-12T08:46:14.281Z,94372.47
2017-08-12T08:48:41.981Z,94373.16
2017-08-12T08:51:09.758Z,94372.58
2017-08-12T08:53:37.532Z,94377.03
2017-08-12T08:56:05.369Z,94383.31
2017-08-12T08:58:33.111Z,94390.57
2017-08-12T09:01:00.876Z,94380.39
2017-08-12T09:03:28.628Z,94375.39
2017-08-12T09:05:56.316Z,94378.22
2017-08-12T09:08:24.120Z,94381.64
2017-08-12T09:10:51.892Z,94375.15
2017-08-12T09:13:19.644Z,94372.65
2017-08-12T09:15:47.379Z,94375.05
2017-08-12T09:18:16.667Z,94371.84
2017-08-12T09:20:44.432Z,94371.13
2017-08-12T09:23:12.141Z,94370.61
2017-08-12T09:25:39.946Z,94387.88
2017-08-12T09:28:07.633Z,94395.62
2017-08-12T09:30:35.424Z,94398.89
2017-08-12T09:33:03.263Z,94392.95
2017-08-12T09:35:30.982Z,94384.99
2017-08-12T09:37:58.767Z,94394.95
2017-08-12T09:40:26.454Z,94396.88
2017-08-12T09:42:54.182Z,94394.60
2017-08-12T09:45:21.895Z,94389.75
2017-08-12T09:47:49.590Z,94392.25
2017-08-12T09:50:17.446Z,94400.76
2017-08-12T09:52:45.228Z,94407.05
2017-08-12T09:55:12.938Z,94403.73
2017-08-12T09:57:40.722Z,94399.67
2017-08-12T10:00:08.482Z,94409.38
2017-08-12T10:02:36.248Z,94410.63
2017-08-12T10:05:04.019Z,94423.59
2017-08-12T10:07:31.783Z,94418.86
2017-08-12T10:09:59.511Z,94409.06
2017-08-12T10:12:27.280Z,94410.91
2017-08-12T10:14:55.072Z,94412.22
2017-08-12T10:17:22.763Z,94415.59
2017-08-12T10:19:50.522Z,94415.73
2017-08-12T10:22:18.285Z,94415.02
2017-08-12T10:24:46.238Z,94419.44
2017-08-12T10:27:13.939Z,94430.62
2017-08-12T10:29:41.731Z,94432.14
2017-08-12T10:32:09.441Z,94434.91
2017-08-12T10:34:37.131Z,94432.92
2017-08-12T10:37:04.900Z,94440.06
2017-08-12T10:39:32.590Z,94440.72
2017-08-12T10:42:00.287Z,94433.34
2017-08-12T10:44:28.011Z,94438.20
2017-08-12T10:46:55.788Z,94445.08
2017-08-12T10:49:23.512Z,94443.28
2017-08-12T10:51:51.283Z,94450.49
2017-08-12T10:54:19.000Z,94450.44
2017-08-12T10:56:46.700Z,94454.89
2017-08-12T10:59:14.459Z,94453.61
2017-08-12T11:01:42.172Z,94445.44
2017-08-12T11:04:09.951Z,94441.69
2017-08-12T11:06:37.762Z,94441.55
2017-08-12T11:09:05.547Z,94428.84
2017-08-12T11:11:33.292Z,94428.04
2017-08-12T11:14:01.013Z,94424.55
2017-08-12T11:16:28.727Z,94424.17
2017-08-12T11:18:56.474Z,94426.97
2017-08-12T11:21:24.323Z,94425.97
2017-08-12T11:23:52.107Z,94419.02
2017-08-12T11:26:19.859Z,94421.66
2017-08-12T11:28:47.609Z,94417.20
2017-08-12T11:31:15.395Z,94416.93
2017-08-12T11:33:44.208Z,94422.50
2017-08-12T11:36:11.930Z,94420.63
2017-08-12T11:38:40.679Z,94413.69
2017-08-12T11:41:08.452Z,94410.39
2017-08-12T11:43:36.219Z,94415.92
2017-08-12T11:46:03.956Z,94418.34
2017-08-12T11:48:31.751Z,94419.55
2017-08-12T11:50:59.569Z,94423.63
2017-08-12T11:53:27.354Z,94426.12
2017-08-12T11:55:55.137Z,94422.03
2017-08-12T11:58:23.046Z,94428.34
2017-08-12T12:03:18.709Z,94426.48
2017-08-12T12:05:46.516Z,94420.91
2017-08-12T12:08:14.332Z,94421.61
2017-08-12T12:10:42.076Z,94432.03
2017-08-12T12:13:09.960Z,94431.06
2017-08-12T12:15:37.700Z,94431.11
2017-08-12T12:18:05.387Z,94437.55
2017-08-12T12:20:33.211Z,94435.29
2017-08-12T12:23:00.965Z,94434.88
2017-08-12T12:25:28.794Z,94442.23
2017-08-12T12:27:56.906Z,94440.49
2017-08-12T12:30:24.677Z,94444.20
2017-08-12T12:32:52.572Z,94449.21
2017-08-12T12:35:20.400Z,94457.00
2017-08-12T12:37:48.252Z,94453.43
2017-08-12T12:40:15.967Z,94457.91
2017-08-12T12:42:43.700Z,94447.02
2017-08-12T12:45:11.452Z,94452.42
2017-08-12T12:47:39.215Z,94456.92
2017-08-12T12:50:06.984Z,94450.36
2017-08-12T12:52:34.697Z,94444.86
2017-08-12T12:55:02.478Z,94441.19
2017-08-12T12:57:30.267Z,94436.05
2017-08-12T12:59:58.002Z,94436.58
2017-08-12T13:02:25.791Z,94429.48
2017-08-12T13:04:53.566Z,94427.64
2017-08-12T13:07:21.413Z,94419.34
2017-08-12T13:09:49.185Z,94416.05
2017-08-12T13:12:17.095Z,94415.53
2017-08-12T13:14:44.882Z,94414.94
2017-08-12T13:17:12.645Z,94415.08
2017-08-12T13:19:40.450Z,94417.09
2017-08-12T13:22:08.205Z,94408.67
2017-08-12T13:24:35.960Z,94410.62
2017-08-12T13:27:03.676Z,94414.20
2017-08-12T13:29:31.454Z,94410.79
2017-08-12T13:31:59.186Z,94406.16
2017-08-12T13:34:26.900Z,94408.67
2017-08-12T13:36:54.663Z,94415.63
2017-08-12T13:39:22.795Z,94411.17
2017-08-12T13:41:50.509Z,94421.82
2017-08-12T13:44:18.277Z,94421.03
2017-08-12T13:46:45.993Z,94414.05
2017-08-12T13:49:13.740Z,94419.71
2017-08-12T13:51:41.608Z,94416.41
2017-08-12T13:54:09.317Z,94415.66
2017-08-12T13:56:37.070Z,94414.84
2017-08-12T13:59:04.797Z,94425.14
2017-08-12T14:01:32.721Z,94424.99
2017-08-12T14:04:00.486Z,94429.85
2017-08-12T14:06:28.209Z,94427.23
2017-08-12T14:08:56.002Z,94426.70
2017-08-12T14:11:23.765Z,94423.13
2017-08-12T14:13:51.500Z,94431.26
2017-08-12T14:16:19.370Z,94444.80
2017-08-12T14:18:47.078Z,94437.95
2017-08-12T14:21:14.843Z,94438.50
2017-08-12T14:23:42.596Z,94439.38
2017-08-12T14:26:10.368Z,94436.99
2017-08-12T14:28:38.188Z,94444.44
2017-08-12T14:31:05.901Z,94436.77
2017-08-12T14:33:33.663Z,94447.53
2017-08-12T14:36:01.468Z,94440.23
2017-08-12T14:38:30.343Z,94432.50
2017-08-12T14:40:58.129Z,94437.59
2017-08-12T14:43:25.885Z,94439.06
2017-08-12T14:45:53.669Z,94437.20
2017-08-12T14:48:21.396Z,94434.59
2017-08-12T14:50:49.257Z,94433.05
2017-08-12T14:53:16.965Z,94429.37
2017-08-12T14:55:44.799Z,94426.63
2017-08-12T14:58:12.599Z,94425.85
2017-08-12T15:00:40.340Z,94433.61
2017-08-12T15:03:08.082Z,94436.00
2017-08-12T15:05:35.913Z,94435.84
2017-08-12T15:08:03.726Z,94425.41
2017-08-12T15:10:31.488Z,94434.39
2017-08-12T15:12:59.260Z,94428.09
2017-08-12T15:15:28.300Z,94438.48
2017-08-12T15:17:56.065Z,94444.02
2017-08-12T15:20:24.561Z,94437.58
2017-08-12T15:22:52.411Z,94436.14
2017-08-12T15:25:20.178Z,94437.97
2017-08-12T15:27:47.937Z,94443.73
2017-08-12T15:30:15.838Z,94444.23
2017-08-12T15:32:43.613Z,94445.55
2017-08-12T15:35:11.366Z,94448.44
2017-08-12T15:37:39.148Z,94445.69
2017-08-12T15:40:06.900Z,94447.52
2017-08-12T15:42:34.729Z,94445.42
2017-08-12T15:45:02.507Z,94447.13
2017-08-12T15:47:30.324Z,94445.03
2017-08-12T15:49:58.131Z,94447.02
2017-08-12T15:52:25.903Z,94453.20
2017-08-12T15:54:53.617Z,94452.42
2017-08-12T15:57:21.415Z,94450.08
2017-08-12T15:59:49.233Z,94459.00
2017-08-12T16:02:17.092Z,94456.00
2017-08-12T16:04:44.873Z,94464.76
2017-08-12T16:07:12.661Z,94458.27
2017-08-12T16:09:40.450Z,94459.76
2017-08-12T16:12:08.232Z,94459.86
2017-08-12T16:14:36.035Z,94460.48
2017-08-12T16:17:03.790Z,94454.96
2017-08-12T16:19:31.579Z,94451.53
2017-08-12T16:21:59.430Z,94454.44
2017-08-12T16:24:27.205Z,94453.67
2017-08-12T16:26:54.920Z,94460.64
2017-08-12T16:29:22.765Z,94457.72
2017-08-12T16:31:50.564Z,94476.59
2017-08-12T16:34:18.327Z,94473.43
2017-08-12T16:36:46.937Z,94472.86
2017-08-12T16:39:14.794Z,94479.88
2017-08-12T16:41:42.576Z,94481.94
2017-08-12T16:44:10.275Z,94481.80
2017-08-12T16:46:38.008Z,94492.09
2017-08-12T16:49:05.811Z,94489.59
2017-08-12T16:51:33.602Z,94495.22
2017-08-12T16:54:01.390Z,94496.95
2017-08-12T16:56:29.156Z,94495.26
2017-08-12T16:58:56.889Z,94491.51
2017-08-12T17:01:24.618Z,94496.05
2017-08-12T17:03:52.373Z,94501.34
2017-08-12T17:06:20.164Z,94511.92
2017-08-12T17:08:47.918Z,94506.19
2017-08-12T17:11:15.679Z,94499.95
2017-08-12T17:13:43.397Z,94508.94
2017-08-12T17:16:11.114Z,94508.75
2017-08-12T17:18:38.872Z,94511.75
2017-08-12T17:21:06.590Z,94510.73
2017-08-12T17:23:34.314Z,94514.80
2017-08-12T17:26:02.086Z,94514.61
2017-08-12T17:28:30.706Z,94519.36
2017-08-12T17:30:58.402Z,94518.63
2017-08-12T17:33:26.189Z,94514.61
2017-08-12T17:35:53.905Z,94521.35
2017-08-12T17:38:21.619Z,94514.59
2017-08-12T17:40:49.390Z,94511.23
2017-08-12T17:43:17.133Z,94514.84
2017-08-12T17:45:44.943Z,94517.34
2017-08-12T17:48:12.703Z,94523.65
2017-08-12T17:50:40.402Z,94516.36
2017-08-12T17:53:08.162Z,94515.05
2017-08-12T17:55:36.022Z,94512.14
2017-08-12T17:58:04.136Z,94518.81
2017-08-12T18:00:31.924Z,94513.64
2017-08-12T18:02:59.661Z,94507.09
2017-08-12T18:05:27.484Z,94504.58
2017-08-12T18:07:55.267Z,94500.58
2017-08-12T18:10:22.980Z,94505.69
2017-08-12T18:12:50.761Z,94506.17
2017-08-12T18:15:18.583Z,94511.77
2017-08-12T18:17:46.315Z,94510.73
2017-08-12T18:20:14.095Z,94519.67
2017-08-12T18:22:41.845Z,94521.22
2017-08-12T18:25:10.473Z,94518.28
2017-08-12T18:27:38.244Z,94520.25
2017-08-12T18:30:05.993Z,94522.94
2017-08-12T18:32:33.737Z,94528.53
2017-08-12T18:35:01.504Z,94519.97
2017-08-12T18:37:29.272Z,94517.48
2017-08-12T18:39:57.082Z,94519.08
2017-08-12T18:42:24.870Z,94523.83
2017-08-12T18:44:52.896Z,94523.01
2017-08-12T18:47:20.637Z,94526.04
2017-08-12T18:49:48.471Z,94539.50
2017-08-12T18:52:16.189Z,94544.13
2017-08-12T18:54:43.996Z,94550.91
2017-08-12T18:57:11.719Z,94564.65
2017-08-12T18:59:39.509Z,94566.13
2017-08-12T19:02:07.230Z,94570.73
2017-08-12T19:04:34.969Z,94578.66
2017-08-12T19:07:02.712Z,94580.05
2017-08-12T19:09:30.469Z,94579.40
2017-08-12T19:11:58.349Z,94584.17
2017-08-12T19:14:26.096Z,94587.80
2017-08-12T19:16:53.836Z,94590.16
2017-08-12T19:19:21.559Z,94593.12
2017-08-12T19:21:49.266Z,94603.67
2017-08-12T19:24:17.004Z,94605.89
2017-08-12T19:26:44.765Z,94608.69
2017-08-12T19:29:12.546Z,94609.93
2017-08-12T19:31:40.284Z,94610.49
2017-08-12T19:34:08.156Z,94616.59
2017-08-12T19:36:35.914Z,94620.52
2017-08-12T19:39:03.898Z,94627.13
2017-08-12T19:41:31.703Z,94620.65
2017-08-12T19:43:59.413Z,94624.80
2017-08-12T19:46:27.187Z,94637.38
2017-08-12T19:48:54.987Z,94629.98
2017-08-12T19:51:22.676Z,94635.16
2017-08-12T19:53:50.460Z,94641.18
2017-08-12T19:56:18.196Z,94640.69
2017-08-12T19:58:46.012Z,94635.34
2017-08-12T20:01:13.786Z,94649.39
2017-08-12T20:03:41.553Z,94643.13
2017-08-12T20:06:09.330Z,94642.67
2017-08-12T20:08:37.041Z,94643.64
2017-08-12T20:11:04.964Z,94639.50
2017-08-12T20:13:32.751Z,94636.69
2017-08-12T20:16:00.536Z,94635.50
2017-08-12T20:18:28.349Z,94635.61
2017-08-12T20:20:56.753Z,94638.23
2017-08-12T20:23:24.536Z,94636.75
2017-08-12T20:25:52.297Z,94634.83
2017-08-12T20:28:20.935Z,94624.99
2017-08-12T20:30:48.654Z,94616.80
2017-08-12T20:33:16.449Z,94615.16
2017-08-12T20:35:44.151Z,94618.33
2017-08-12T20:38:14.082Z,94606.56
2017-08-12T20:40:41.844Z,94605.88
2017-08-12T20:43:09.588Z,94603.09
2017-08-12T20:45:37.369Z,94591.66
2017-08-12T20:48:05.184Z,94577.89
2017-08-12T20:50:32.908Z,94568.79
2017-08-12T20:53:00.617Z,94562.09
2017-08-12T20:55:28.403Z,94552.59
2017-08-12T20:57:57.248Z,94545.14
2017-08-12T21:00:24.994Z,94540.89
2017-08-12T21:02:52.752Z,94539.58
2017-08-12T21:05:20.465Z,94541.34
2017-08-12T21:07:48.177Z,94542.05
2017-08-12T21:10:16.028Z,94537.93
2017-08-12T21:12:43.784Z,94540.08
2017-08-12T21:15:11.597Z,94539.71
2017-08-12T21:17:39.282Z,94534.76
2017-08-12T21:20:07.137Z,94533.97
2017-08-12T21:22:34.919Z,94531.77
2017-08-12T21:25:02.664Z,94529.61
2017-08-12T21:27:30.366Z,94525.30
2017-08-12T21:29:58.103Z,94517.39
2017-08-12T21:32:25.829Z,94533.59
2017-08-12T21:34:53.600Z,94528.72
2017-08-12T21:37:21.360Z,94531.45
2017-08-12T21:39:49.069Z,94541.47
2017-08-12T21:42:16.842Z,94543.00
2017-08-12T21:44:44.567Z,94544.34
2017-08-12T21:47:12.328Z,94547.20
2017-08-12T21:49:40.093Z,94544.76
2017-08-12T21:52:07.883Z,94536.45
2017-08-12T21:54:35.641Z,94542.13
2017-08-12T21:57:03.380Z,94533.28
2017-08-12T21:59:31.154Z,94544.26
2017-08-12T22:01:58.930Z,94545.16
2017-08-12T22:04:26.700Z,94539.16
2017-08-12T22:06:54.428Z,94548.63
2017-08-12T22:09:22.247Z,94545.79
2017-08-12T22:11:50.008Z,94558.36
2017-08-12T22:14:17.717Z,94560.92
2017-08-12T22:16:45.505Z,94555.14
2017-08-12T22:19:13.275Z,94560.79
2017-08-12T22:21:41.004Z,94568.23
2017-08-12T22:24:08.770Z,94568.63
2017-08-12T22:26:36.542Z,94571.70
2017-08-12T22:29:04.256Z,94579.16
2017-08-12T22:31:31.987Z,94570.89
2017-08-12T22:33:59.759Z,94568.55
2017-08-12T22:36:27.468Z,94564.90
2017-08-12T22:38:55.255Z,94568.09
2017-08-12T22:41:22.979Z,94571.94
2017-08-12T22:43:50.771Z,94575.06
2017-08-12T22:46:18.497Z,94570.91
2017-08-12T22:48:46.276Z,94574.98
2017-08-12T22:51:14.591Z,94570.88
2017-08-12T23:02:42.445Z,94581.25
2017-08-12T23:05:10.159Z,94578.66
2017-08-12T23:07:37.875Z,94586.20
2017-08-12T23:10:06.138Z,94584.61
2017-08-12T23:12:33.984Z,94599.52
2017-08-12T23:15:01.759Z,94599.23
2017-08-12T23:17:29.560Z,94601.62
2017-08-12T23:19:57.388Z,94602.09
2017-08-12T23:22:25.082Z,94603.11
2017-08-12T23:24:52.797Z,94599.53
2017-08-12T23:27:20.591Z,94594.52
2017-08-12T23:29:48.359Z,94596.84
2017-08-12T23:32:16.125Z,94596.00
2017-08-12T23:34:43.845Z,94593.38
2017-08-12T23:37:11.605Z,94589.91
2017-08-12T23:39:39.422Z,94582.86
2017-08-12T23:42:07.276Z,94588.09
2017-08-12T23:44:35.147Z,94586.61
2017-08-12T23:47:02.861Z,94580.52
2017-08-12T23:49:31.438Z,94574.66
2017-08-12T23:51:59.288Z,94571.31
2017-08-12T23:54:27.044Z,94561.41
2017-08-12T23:56:55.117Z,94562.20
2017-08-12T23:59:22.822Z,94558.17
